sensor_id;sensor_type;location;lat;lon;timestamp;P1;durP1;ratioP1;P2;durP2;ratioP2
74541;SDS011;63015;45.378;20.360;2023-07-13T00:01:45;12.65;;;5.60;;
74541;SDS011;63015;45.378;20.360;2023-07-13T00:03:49;14.10;;;5.80;;
74541;SDS011;63015;45.378;20.360;2023-07-13T00:05:57;10.48;;;5.20;;
74541;SDS011;63015;45.378;20.360;2023-07-13T00:07:58;17.35;;;5.60;;
74541;SDS011;63015;45.378;20.360;2023-07-13T00:09:59;10.65;;;5.18;;
74541;SDS011;63015;45.378;20.360;2023-07-13T00:12:00;11.50;;;4.88;;
74541;SDS011;63015;45.378;20.360;2023-07-13T00:14:01;11.80;;;5.30;;
74541;SDS011;63015;45.378;20.360;2023-07-13T00:16:01;15.02;;;5.22;;
74541;SDS011;63015;45.378;20.360;2023-07-13T00:18:02;12.77;;;5.57;;
74541;SDS011;63015;45.378;20.360;2023-07-13T00:20:03;15.13;;;5.18;;
74541;SDS011;63015;45.378;20.360;2023-07-13T00:22:04;14.00;;;5.28;;
74541;SDS011;63015;45.378;20.360;2023-07-13T00:24:05;13.77;;;4.88;;
74541;SDS011;63015;45.378;20.360;2023-07-13T00:26:07;14.65;;;5.55;;
74541;SDS011;63015;45.378;20.360;2023-07-13T00:28:12;16.33;;;5.82;;
74541;SDS011;63015;45.378;20.360;2023-07-13T00:30:12;12.27;;;5.20;;
74541;SDS011;63015;45.378;20.360;2023-07-13T00:32:13;12.73;;;5.05;;
74541;SDS011;63015;45.378;20.360;2023-07-13T00:34:14;13.68;;;5.47;;
74541;SDS011;63015;45.378;20.360;2023-07-13T00:36:15;16.13;;;4.70;;
74541;SDS011;63015;45.378;20.360;2023-07-13T00:38:15;13.88;;;5.55;;
74541;SDS011;63015;45.378;20.360;2023-07-13T00:40:16;17.52;;;5.75;;
74541;SDS011;63015;45.378;20.360;2023-07-13T00:42:19;17.60;;;6.00;;
74541;SDS011;63015;45.378;20.360;2023-07-13T00:44:20;15.25;;;6.00;;
74541;SDS011;63015;45.378;20.360;2023-07-13T00:46:24;14.77;;;6.60;;
74541;SDS011;63015;45.378;20.360;2023-07-13T00:48:33;10.48;;;5.60;;
74541;SDS011;63015;45.378;20.360;2023-07-13T00:50:37;14.82;;;6.70;;
74541;SDS011;63015;45.378;20.360;2023-07-13T00:52:41;17.20;;;5.97;;
74541;SDS011;63015;45.378;20.360;2023-07-13T00:54:45;15.88;;;5.95;;
74541;SDS011;63015;45.378;20.360;2023-07-13T00:56:47;13.45;;;5.72;;
74541;SDS011;63015;45.378;20.360;2023-07-13T00:58:50;13.45;;;5.63;;
74541;SDS011;63015;45.378;20.360;2023-07-13T01:00:52;11.38;;;5.95;;
74541;SDS011;63015;45.378;20.360;2023-07-13T01:02:53;10.70;;;5.80;;
74541;SDS011;63015;45.378;20.360;2023-07-13T01:04:53;16.10;;;5.82;;
74541;SDS011;63015;45.378;20.360;2023-07-13T01:06:54;13.50;;;5.72;;
74541;SDS011;63015;45.378;20.360;2023-07-13T01:08:56;9.88;;;5.97;;
74541;SDS011;63015;45.378;20.360;2023-07-13T01:10:59;13.40;;;5.60;;
74541;SDS011;63015;45.378;20.360;2023-07-13T01:12:59;10.90;;;5.63;;
74541;SDS011;63015;45.378;20.360;2023-07-13T01:15:00;15.40;;;5.93;;
74541;SDS011;63015;45.378;20.360;2023-07-13T01:17:01;11.98;;;5.72;;
74541;SDS011;63015;45.378;20.360;2023-07-13T01:19:03;11.13;;;6.10;;
74541;SDS011;63015;45.378;20.360;2023-07-13T01:21:18;12.73;;;6.65;;
74541;SDS011;63015;45.378;20.360;2023-07-13T01:23:20;12.35;;;5.90;;
74541;SDS011;63015;45.378;20.360;2023-07-13T01:25:22;13.90;;;6.32;;
74541;SDS011;63015;45.378;20.360;2023-07-13T01:27:24;11.05;;;5.80;;
74541;SDS011;63015;45.378;20.360;2023-07-13T01:29:25;15.25;;;5.57;;
74541;SDS011;63015;45.378;20.360;2023-07-13T01:31:26;14.68;;;6.40;;
74541;SDS011;63015;45.378;20.360;2023-07-13T01:33:26;15.30;;;6.25;;
74541;SDS011;63015;45.378;20.360;2023-07-13T01:35:27;13.70;;;6.25;;
74541;SDS011;63015;45.378;20.360;2023-07-13T01:37:28;13.52;;;5.90;;
74541;SDS011;63015;45.378;20.360;2023-07-13T01:39:33;16.60;;;6.03;;
74541;SDS011;63015;45.378;20.360;2023-07-13T01:41:34;13.52;;;5.82;;
74541;SDS011;63015;45.378;20.360;2023-07-13T01:43:34;17.40;;;5.72;;
74541;SDS011;63015;45.378;20.360;2023-07-13T01:45:35;20.30;;;5.82;;
74541;SDS011;63015;45.378;20.360;2023-07-13T01:47:36;16.63;;;5.22;;
74541;SDS011;63015;45.378;20.360;2023-07-13T01:49:37;14.18;;;6.13;;
74541;SDS011;63015;45.378;20.360;2023-07-13T01:51:38;13.57;;;5.85;;
74541;SDS011;63015;45.378;20.360;2023-07-13T01:53:38;13.27;;;5.78;;
74541;SDS011;63015;45.378;20.360;2023-07-13T01:55:39;13.85;;;6.05;;
74541;SDS011;63015;45.378;20.360;2023-07-13T01:57:40;14.60;;;5.80;;
74541;SDS011;63015;45.378;20.360;2023-07-13T01:59:41;13.55;;;6.55;;
74541;SDS011;63015;45.378;20.360;2023-07-13T02:01:41;17.70;;;6.25;;
74541;SDS011;63015;45.378;20.360;2023-07-13T02:03:42;13.98;;;5.82;;
74541;SDS011;63015;45.378;20.360;2023-07-13T02:05:42;20.00;;;6.63;;
74541;SDS011;63015;45.378;20.360;2023-07-13T02:07:43;16.35;;;6.53;;
74541;SDS011;63015;45.378;20.360;2023-07-13T02:09:44;12.80;;;5.88;;
74541;SDS011;63015;45.378;20.360;2023-07-13T02:11:44;13.23;;;6.28;;
74541;SDS011;63015;45.378;20.360;2023-07-13T02:13:45;16.48;;;6.38;;
74541;SDS011;63015;45.378;20.360;2023-07-13T02:15:45;16.02;;;6.78;;
74541;SDS011;63015;45.378;20.360;2023-07-13T02:17:46;14.18;;;6.70;;
74541;SDS011;63015;45.378;20.360;2023-07-13T02:19:47;14.13;;;6.82;;
74541;SDS011;63015;45.378;20.360;2023-07-13T02:21:47;14.07;;;7.15;;
74541;SDS011;63015;45.378;20.360;2023-07-13T02:23:49;13.02;;;6.57;;
74541;SDS011;63015;45.378;20.360;2023-07-13T02:25:54;12.15;;;6.45;;
74541;SDS011;63015;45.378;20.360;2023-07-13T02:27:55;15.10;;;7.07;;
74541;SDS011;63015;45.378;20.360;2023-07-13T02:29:56;12.27;;;6.75;;
74541;SDS011;63015;45.378;20.360;2023-07-13T02:31:57;14.50;;;6.90;;
74541;SDS011;63015;45.378;20.360;2023-07-13T02:33:57;12.45;;;6.57;;
74541;SDS011;63015;45.378;20.360;2023-07-13T02:35:58;13.27;;;6.40;;
74541;SDS011;63015;45.378;20.360;2023-07-13T02:37:59;12.70;;;6.40;;
74541;SDS011;63015;45.378;20.360;2023-07-13T02:39:59;13.60;;;6.90;;
74541;SDS011;63015;45.378;20.360;2023-07-13T02:42:00;15.07;;;6.40;;
74541;SDS011;63015;45.378;20.360;2023-07-13T02:44:01;10.27;;;6.53;;
74541;SDS011;63015;45.378;20.360;2023-07-13T02:46:06;14.20;;;6.30;;
74541;SDS011;63015;45.378;20.360;2023-07-13T02:48:09;16.13;;;6.68;;
74541;SDS011;63015;45.378;20.360;2023-07-13T02:50:10;18.38;;;6.85;;
74541;SDS011;63015;45.378;20.360;2023-07-13T02:52:11;17.77;;;6.90;;
74541;SDS011;63015;45.378;20.360;2023-07-13T02:54:11;11.95;;;6.00;;
74541;SDS011;63015;45.378;20.360;2023-07-13T02:56:14;15.07;;;6.32;;
74541;SDS011;63015;45.378;20.360;2023-07-13T02:58:14;17.10;;;7.07;;
74541;SDS011;63015;45.378;20.360;2023-07-13T03:00:17;18.83;;;6.45;;
74541;SDS011;63015;45.378;20.360;2023-07-13T03:02:18;15.10;;;6.85;;
74541;SDS011;63015;45.378;20.360;2023-07-13T03:04:18;14.27;;;6.22;;
74541;SDS011;63015;45.378;20.360;2023-07-13T03:06:20;12.65;;;6.95;;
74541;SDS011;63015;45.378;20.360;2023-07-13T03:08:25;14.50;;;6.80;;
74541;SDS011;63015;45.378;20.360;2023-07-13T03:12:28;17.05;;;6.30;;
74541;SDS011;63015;45.378;20.360;2023-07-13T03:14:29;13.05;;;6.20;;
74541;SDS011;63015;45.378;20.360;2023-07-13T03:16:30;12.40;;;5.90;;
74541;SDS011;63015;45.378;20.360;2023-07-13T03:18:31;13.05;;;7.15;;
74541;SDS011;63015;45.378;20.360;2023-07-13T03:20:36;15.40;;;6.80;;
74541;SDS011;63015;45.378;20.360;2023-07-13T03:22:36;14.90;;;7.10;;
74541;SDS011;63015;45.378;20.360;2023-07-13T03:24:37;15.00;;;6.63;;
74541;SDS011;63015;45.378;20.360;2023-07-13T03:26:39;12.23;;;6.80;;
74541;SDS011;63015;45.378;20.360;2023-07-13T03:28:40;17.13;;;7.35;;
74541;SDS011;63015;45.378;20.360;2023-07-13T03:30:43;15.35;;;7.22;;
74541;SDS011;63015;45.378;20.360;2023-07-13T03:32:44;13.32;;;7.43;;
74541;SDS011;63015;45.378;20.360;2023-07-13T03:34:44;11.90;;;6.80;;
74541;SDS011;63015;45.378;20.360;2023-07-13T03:36:46;11.65;;;7.38;;
74541;SDS011;63015;45.378;20.360;2023-07-13T03:38:51;13.35;;;6.88;;
74541;SDS011;63015;45.378;20.360;2023-07-13T03:40:57;15.15;;;7.00;;
74541;SDS011;63015;45.378;20.360;2023-07-13T03:42:58;12.75;;;6.95;;
74541;SDS011;63015;45.378;20.360;2023-07-13T03:44:59;11.27;;;6.22;;
74541;SDS011;63015;45.378;20.360;2023-07-13T03:46:59;11.55;;;6.57;;
74541;SDS011;63015;45.378;20.360;2023-07-13T03:49:01;12.27;;;7.35;;
74541;SDS011;63015;45.378;20.360;2023-07-13T03:51:01;18.23;;;8.02;;
74541;SDS011;63015;45.378;20.360;2023-07-13T03:53:03;15.10;;;7.38;;
74541;SDS011;63015;45.378;20.360;2023-07-13T03:55:05;17.65;;;6.97;;
74541;SDS011;63015;45.378;20.360;2023-07-13T03:57:07;13.88;;;7.57;;
74541;SDS011;63015;45.378;20.360;2023-07-13T03:59:10;10.73;;;7.15;;
74541;SDS011;63015;45.378;20.360;2023-07-13T04:01:11;14.25;;;6.97;;
74541;SDS011;63015;45.378;20.360;2023-07-13T04:03:12;15.90;;;7.22;;
74541;SDS011;63015;45.378;20.360;2023-07-13T04:05:13;19.88;;;6.70;;
74541;SDS011;63015;45.378;20.360;2023-07-13T04:07:14;13.05;;;7.22;;
74541;SDS011;63015;45.378;20.360;2023-07-13T04:09:14;16.67;;;7.25;;
74541;SDS011;63015;45.378;20.360;2023-07-13T04:11:16;12.23;;;7.45;;
74541;SDS011;63015;45.378;20.360;2023-07-13T04:13:18;14.65;;;8.15;;
74541;SDS011;63015;45.378;20.360;2023-07-13T04:15:20;13.38;;;7.25;;
74541;SDS011;63015;45.378;20.360;2023-07-13T04:17:20;16.98;;;7.45;;
74541;SDS011;63015;45.378;20.360;2023-07-13T04:19:21;17.45;;;7.63;;
74541;SDS011;63015;45.378;20.360;2023-07-13T04:21:21;11.38;;;8.15;;
74541;SDS011;63015;45.378;20.360;2023-07-13T04:23:22;15.18;;;7.90;;
74541;SDS011;63015;45.378;20.360;2023-07-13T04:25:23;15.95;;;8.10;;
74541;SDS011;63015;45.378;20.360;2023-07-13T04:27:23;16.30;;;8.00;;
74541;SDS011;63015;45.378;20.360;2023-07-13T04:29:24;13.75;;;8.20;;
74541;SDS011;63015;45.378;20.360;2023-07-13T04:31:24;17.67;;;8.23;;
74541;SDS011;63015;45.378;20.360;2023-07-13T04:33:26;17.52;;;8.38;;
74541;SDS011;63015;45.378;20.360;2023-07-13T04:35:27;18.63;;;8.60;;
74541;SDS011;63015;45.378;20.360;2023-07-13T04:37:28;13.27;;;8.32;;
74541;SDS011;63015;45.378;20.360;2023-07-13T04:39:29;15.52;;;8.68;;
74541;SDS011;63015;45.378;20.360;2023-07-13T04:41:30;14.95;;;8.85;;
74541;SDS011;63015;45.378;20.360;2023-07-13T04:43:30;14.90;;;9.13;;
74541;SDS011;63015;45.378;20.360;2023-07-13T04:45:32;16.20;;;9.10;;
74541;SDS011;63015;45.378;20.360;2023-07-13T04:47:32;19.70;;;12.18;;
74541;SDS011;63015;45.378;20.360;2023-07-13T04:49:33;31.27;;;27.08;;
74541;SDS011;63015;45.378;20.360;2023-07-13T04:51:33;30.75;;;19.40;;
74541;SDS011;63015;45.378;20.360;2023-07-13T04:53:34;22.58;;;14.50;;
74541;SDS011;63015;45.378;20.360;2023-07-13T04:55:35;22.05;;;12.95;;
74541;SDS011;63015;45.378;20.360;2023-07-13T04:57:36;17.50;;;11.75;;
74541;SDS011;63015;45.378;20.360;2023-07-13T04:59:36;16.15;;;10.48;;
74541;SDS011;63015;45.378;20.360;2023-07-13T05:01:37;14.20;;;10.18;;
74541;SDS011;63015;45.378;20.360;2023-07-13T05:03:37;15.45;;;9.25;;
74541;SDS011;63015;45.378;20.360;2023-07-13T05:05:38;14.68;;;8.75;;
74541;SDS011;63015;45.378;20.360;2023-07-13T05:07:39;16.17;;;10.07;;
74541;SDS011;63015;45.378;20.360;2023-07-13T05:09:39;17.08;;;9.25;;
74541;SDS011;63015;45.378;20.360;2023-07-13T05:11:40;14.88;;;8.93;;
74541;SDS011;63015;45.378;20.360;2023-07-13T05:13:40;19.13;;;9.95;;
74541;SDS011;63015;45.378;20.360;2023-07-13T05:15:41;16.00;;;8.35;;
74541;SDS011;63015;45.378;20.360;2023-07-13T05:17:42;23.45;;;10.10;;
74541;SDS011;63015;45.378;20.360;2023-07-13T05:19:42;15.48;;;9.55;;
74541;SDS011;63015;45.378;20.360;2023-07-13T05:21:43;20.67;;;10.50;;
74541;SDS011;63015;45.378;20.360;2023-07-13T05:23:43;16.42;;;9.57;;
74541;SDS011;63015;45.378;20.360;2023-07-13T05:25:44;16.80;;;9.07;;
74541;SDS011;63015;45.378;20.360;2023-07-13T05:27:44;16.63;;;9.63;;
74541;SDS011;63015;45.378;20.360;2023-07-13T05:29:46;18.00;;;9.68;;
74541;SDS011;63015;45.378;20.360;2023-07-13T05:31:46;21.30;;;9.70;;
74541;SDS011;63015;45.378;20.360;2023-07-13T05:33:47;16.33;;;9.32;;
74541;SDS011;63015;45.378;20.360;2023-07-13T05:35:47;16.40;;;9.38;;
74541;SDS011;63015;45.378;20.360;2023-07-13T05:37:48;15.15;;;8.77;;
74541;SDS011;63015;45.378;20.360;2023-07-13T05:39:49;17.00;;;10.05;;
74541;SDS011;63015;45.378;20.360;2023-07-13T05:41:49;14.77;;;8.98;;
74541;SDS011;63015;45.378;20.360;2023-07-13T05:43:50;16.35;;;9.00;;
74541;SDS011;63015;45.378;20.360;2023-07-13T05:45:52;15.40;;;9.70;;
74541;SDS011;63015;45.378;20.360;2023-07-13T05:47:54;17.50;;;9.15;;
74541;SDS011;63015;45.378;20.360;2023-07-13T05:49:54;24.63;;;9.88;;
74541;SDS011;63015;45.378;20.360;2023-07-13T05:51:55;18.20;;;9.35;;
74541;SDS011;63015;45.378;20.360;2023-07-13T05:53:56;16.67;;;8.88;;
74541;SDS011;63015;45.378;20.360;2023-07-13T05:55:56;23.08;;;9.10;;
74541;SDS011;63015;45.378;20.360;2023-07-13T05:57:57;17.13;;;8.43;;
74541;SDS011;63015;45.378;20.360;2023-07-13T05:59:59;15.52;;;8.05;;
74541;SDS011;63015;45.378;20.360;2023-07-13T06:01:59;15.93;;;8.30;;
74541;SDS011;63015;45.378;20.360;2023-07-13T06:04:00;13.77;;;8.20;;
74541;SDS011;63015;45.378;20.360;2023-07-13T06:06:01;14.05;;;7.78;;
74541;SDS011;63015;45.378;20.360;2023-07-13T06:08:01;13.75;;;7.45;;
74541;SDS011;63015;45.378;20.360;2023-07-13T06:10:02;12.88;;;7.57;;
74541;SDS011;63015;45.378;20.360;2023-07-13T06:12:03;22.13;;;7.50;;
74541;SDS011;63015;45.378;20.360;2023-07-13T06:14:04;16.65;;;7.95;;
74541;SDS011;63015;45.378;20.360;2023-07-13T06:16:05;17.42;;;8.32;;
74541;SDS011;63015;45.378;20.360;2023-07-13T06:18:06;13.40;;;7.50;;
74541;SDS011;63015;45.378;20.360;2023-07-13T06:20:06;21.45;;;7.47;;
74541;SDS011;63015;45.378;20.360;2023-07-13T06:22:08;13.63;;;7.00;;
74541;SDS011;63015;45.378;20.360;2023-07-13T06:24:08;17.83;;;7.57;;
74541;SDS011;63015;45.378;20.360;2023-07-13T06:26:09;15.40;;;8.07;;
74541;SDS011;63015;45.378;20.360;2023-07-13T06:28:10;19.17;;;7.55;;
74541;SDS011;63015;45.378;20.360;2023-07-13T06:30:11;16.92;;;7.25;;
74541;SDS011;63015;45.378;20.360;2023-07-13T06:32:12;14.18;;;6.72;;
74541;SDS011;63015;45.378;20.360;2023-07-13T06:34:13;14.85;;;6.70;;
74541;SDS011;63015;45.378;20.360;2023-07-13T06:36:13;10.73;;;6.32;;
74541;SDS011;63015;45.378;20.360;2023-07-13T06:38:14;12.63;;;6.38;;
74541;SDS011;63015;45.378;20.360;2023-07-13T06:40:15;17.67;;;7.50;;
74541;SDS011;63015;45.378;20.360;2023-07-13T06:42:16;17.08;;;8.65;;
74541;SDS011;63015;45.378;20.360;2023-07-13T06:44:17;21.92;;;10.57;;
74541;SDS011;63015;45.378;20.360;2023-07-13T06:46:19;24.08;;;12.65;;
74541;SDS011;63015;45.378;20.360;2023-07-13T06:48:21;23.95;;;14.05;;
74541;SDS011;63015;45.378;20.360;2023-07-13T06:50:22;27.02;;;13.57;;
74541;SDS011;63015;45.378;20.360;2023-07-13T06:52:23;25.48;;;13.23;;
74541;SDS011;63015;45.378;20.360;2023-07-13T06:54:23;25.92;;;10.02;;
74541;SDS011;63015;45.378;20.360;2023-07-13T06:56:25;25.88;;;9.15;;
74541;SDS011;63015;45.378;20.360;2023-07-13T06:58:25;23.45;;;8.88;;
74541;SDS011;63015;45.378;20.360;2023-07-13T07:00:26;17.48;;;7.40;;
74541;SDS011;63015;45.378;20.360;2023-07-13T07:02:26;15.27;;;8.10;;
74541;SDS011;63015;45.378;20.360;2023-07-13T07:04:27;19.50;;;7.22;;
74541;SDS011;63015;45.378;20.360;2023-07-13T07:06:28;16.38;;;7.40;;
74541;SDS011;63015;45.378;20.360;2023-07-13T07:08:28;20.33;;;7.78;;
74541;SDS011;63015;45.378;20.360;2023-07-13T07:10:29;14.75;;;7.15;;
74541;SDS011;63015;45.378;20.360;2023-07-13T07:12:31;14.98;;;5.82;;
74541;SDS011;63015;45.378;20.360;2023-07-13T07:14:32;16.40;;;5.75;;
74541;SDS011;63015;45.378;20.360;2023-07-13T07:16:34;25.52;;;6.50;;
74541;SDS011;63015;45.378;20.360;2023-07-13T07:18:34;14.73;;;6.63;;
74541;SDS011;63015;45.378;20.360;2023-07-13T07:20:35;12.32;;;6.97;;
74541;SDS011;63015;45.378;20.360;2023-07-13T07:22:36;14.57;;;6.32;;
74541;SDS011;63015;45.378;20.360;2023-07-13T07:24:37;12.55;;;5.65;;
74541;SDS011;63015;45.378;20.360;2023-07-13T07:26:37;14.00;;;6.13;;
74541;SDS011;63015;45.378;20.360;2023-07-13T07:28:38;11.48;;;4.80;;
74541;SDS011;63015;45.378;20.360;2023-07-13T07:30:41;16.58;;;6.50;;
74541;SDS011;63015;45.378;20.360;2023-07-13T07:32:43;15.32;;;6.65;;
74541;SDS011;63015;45.378;20.360;2023-07-13T07:34:44;16.15;;;6.65;;
74541;SDS011;63015;45.378;20.360;2023-07-13T07:36:44;19.75;;;6.10;;
74541;SDS011;63015;45.378;20.360;2023-07-13T07:38:45;14.32;;;5.88;;
74541;SDS011;63015;45.378;20.360;2023-07-13T07:40:46;14.65;;;5.53;;
74541;SDS011;63015;45.378;20.360;2023-07-13T07:42:46;15.90;;;6.00;;
74541;SDS011;63015;45.378;20.360;2023-07-13T07:44:47;12.55;;;5.45;;
74541;SDS011;63015;45.378;20.360;2023-07-13T07:46:47;13.48;;;5.45;;
74541;SDS011;63015;45.378;20.360;2023-07-13T07:48:48;11.02;;;6.30;;
74541;SDS011;63015;45.378;20.360;2023-07-13T07:50:49;14.57;;;5.53;;
74541;SDS011;63015;45.378;20.360;2023-07-13T07:52:49;15.98;;;5.47;;
74541;SDS011;63015;45.378;20.360;2023-07-13T07:54:50;12.27;;;5.10;;
74541;SDS011;63015;45.378;20.360;2023-07-13T07:56:51;11.60;;;5.45;;
74541;SDS011;63015;45.378;20.360;2023-07-13T07:58:51;14.20;;;5.18;;
74541;SDS011;63015;45.378;20.360;2023-07-13T08:00:52;15.18;;;5.60;;
74541;SDS011;63015;45.378;20.360;2023-07-13T08:02:52;12.27;;;4.45;;
74541;SDS011;63015;45.378;20.360;2023-07-13T08:04:53;13.02;;;5.93;;
74541;SDS011;63015;45.378;20.360;2023-07-13T08:06:54;14.55;;;5.93;;
74541;SDS011;63015;45.378;20.360;2023-07-13T08:08:56;16.27;;;5.32;;
74541;SDS011;63015;45.378;20.360;2023-07-13T08:10:56;15.40;;;5.50;;
74541;SDS011;63015;45.378;20.360;2023-07-13T08:12:57;15.98;;;5.05;;
74541;SDS011;63015;45.378;20.360;2023-07-13T08:14:58;14.57;;;5.60;;
74541;SDS011;63015;45.378;20.360;2023-07-13T08:17:00;14.38;;;5.68;;
74541;SDS011;63015;45.378;20.360;2023-07-13T08:19:01;16.13;;;5.72;;
74541;SDS011;63015;45.378;20.360;2023-07-13T08:21:05;16.02;;;5.40;;
74541;SDS011;63015;45.378;20.360;2023-07-13T08:23:09;16.08;;;6.10;;
74541;SDS011;63015;45.378;20.360;2023-07-13T08:25:10;19.38;;;6.13;;
74541;SDS011;63015;45.378;20.360;2023-07-13T08:27:11;14.30;;;5.97;;
74541;SDS011;63015;45.378;20.360;2023-07-13T08:29:11;16.95;;;6.40;;
74541;SDS011;63015;45.378;20.360;2023-07-13T08:31:12;12.68;;;5.68;;
74541;SDS011;63015;45.378;20.360;2023-07-13T08:33:14;16.00;;;6.85;;
74541;SDS011;63015;45.378;20.360;2023-07-13T08:35:19;14.55;;;5.07;;
74541;SDS011;63015;45.378;20.360;2023-07-13T08:37:19;15.65;;;5.43;;
74541;SDS011;63015;45.378;20.360;2023-07-13T08:39:20;12.45;;;6.00;;
74541;SDS011;63015;45.378;20.360;2023-07-13T08:41:21;17.73;;;5.93;;
74541;SDS011;63015;45.378;20.360;2023-07-13T08:43:26;14.13;;;5.55;;
74541;SDS011;63015;45.378;20.360;2023-07-13T08:45:42;14.70;;;6.13;;
74541;SDS011;63015;45.378;20.360;2023-07-13T08:47:51;16.15;;;5.45;;
74541;SDS011;63015;45.378;20.360;2023-07-13T08:49:54;12.48;;;5.63;;
74541;SDS011;63015;45.378;20.360;2023-07-13T08:52:01;15.65;;;5.90;;
74541;SDS011;63015;45.378;20.360;2023-07-13T08:56:38;14.88;;;5.57;;
74541;SDS011;63015;45.378;20.360;2023-07-13T08:58:39;15.40;;;5.75;;
74541;SDS011;63015;45.378;20.360;2023-07-13T09:00:53;10.60;;;5.78;;
74541;SDS011;63015;45.378;20.360;2023-07-13T09:02:56;13.18;;;4.90;;
74541;SDS011;63015;45.378;20.360;2023-07-13T09:11:58;16.42;;;5.30;;
74541;SDS011;63015;45.378;20.360;2023-07-13T09:16:35;16.08;;;5.97;;
74541;SDS011;63015;45.378;20.360;2023-07-13T09:18:40;18.38;;;5.68;;
74541;SDS011;63015;45.378;20.360;2023-07-13T09:22:56;17.88;;;6.07;;
74541;SDS011;63015;45.378;20.360;2023-07-13T09:25:05;12.40;;;5.13;;
74541;SDS011;63015;45.378;20.360;2023-07-13T09:27:27;11.88;;;5.15;;
74541;SDS011;63015;45.378;20.360;2023-07-13T09:29:33;18.70;;;5.60;;
74541;SDS011;63015;45.378;20.360;2023-07-13T09:31:53;11.90;;;5.82;;
74541;SDS011;63015;45.378;20.360;2023-07-13T09:33:57;11.55;;;5.22;;
74541;SDS011;63015;45.378;20.360;2023-07-13T09:35:58;11.82;;;5.20;;
74541;SDS011;63015;45.378;20.360;2023-07-13T09:38:03;12.82;;;5.82;;
74541;SDS011;63015;45.378;20.360;2023-07-13T09:42:59;11.38;;;5.82;;
74541;SDS011;63015;45.378;20.360;2023-07-13T09:45:00;12.75;;;5.45;;
74541;SDS011;63015;45.378;20.360;2023-07-13T09:47:28;13.70;;;5.63;;
74541;SDS011;63015;45.378;20.360;2023-07-13T09:49:34;14.82;;;5.93;;
74541;SDS011;63015;45.378;20.360;2023-07-13T09:51:36;18.35;;;5.30;;
74541;SDS011;63015;45.378;20.360;2023-07-13T09:53:43;15.02;;;5.30;;
74541;SDS011;63015;45.378;20.360;2023-07-13T09:55:45;11.35;;;5.70;;
74541;SDS011;63015;45.378;20.360;2023-07-13T09:57:47;14.77;;;5.78;;
74541;SDS011;63015;45.378;20.360;2023-07-13T09:59:49;12.82;;;5.72;;
74541;SDS011;63015;45.378;20.360;2023-07-13T10:01:51;16.23;;;5.60;;
74541;SDS011;63015;45.378;20.360;2023-07-13T10:03:53;12.63;;;5.75;;
74541;SDS011;63015;45.378;20.360;2023-07-13T10:05:54;13.75;;;5.63;;
74541;SDS011;63015;45.378;20.360;2023-07-13T10:08:00;15.10;;;5.82;;
74541;SDS011;63015;45.378;20.360;2023-07-13T10:10:01;12.63;;;5.28;;
74541;SDS011;63015;45.378;20.360;2023-07-13T10:12:03;16.50;;;5.85;;
74541;SDS011;63015;45.378;20.360;2023-07-13T10:14:22;13.13;;;5.80;;
74541;SDS011;63015;45.378;20.360;2023-07-13T10:16:29;15.57;;;5.18;;
74541;SDS011;63015;45.378;20.360;2023-07-13T10:18:53;13.82;;;5.60;;
74541;SDS011;63015;45.378;20.360;2023-07-13T10:21:00;12.48;;;5.35;;
74541;SDS011;63015;45.378;20.360;2023-07-13T10:23:15;15.32;;;4.93;;
74541;SDS011;63015;45.378;20.360;2023-07-13T10:25:24;13.80;;;5.63;;
74541;SDS011;63015;45.378;20.360;2023-07-13T10:27:32;11.50;;;4.10;;
74541;SDS011;63015;45.378;20.360;2023-07-13T10:31:38;14.75;;;5.18;;
74541;SDS011;63015;45.378;20.360;2023-07-13T10:33:39;13.93;;;5.20;;
74541;SDS011;63015;45.378;20.360;2023-07-13T10:35:41;15.40;;;4.90;;
74541;SDS011;63015;45.378;20.360;2023-07-13T10:37:48;15.30;;;5.47;;
74541;SDS011;63015;45.378;20.360;2023-07-13T10:40:13;11.93;;;5.43;;
74541;SDS011;63015;45.378;20.360;2023-07-13T10:42:19;13.13;;;5.45;;
74541;SDS011;63015;45.378;20.360;2023-07-13T10:44:30;15.27;;;5.47;;
74541;SDS011;63015;45.378;20.360;2023-07-13T10:46:33;13.52;;;4.57;;
74541;SDS011;63015;45.378;20.360;2023-07-13T10:48:34;10.35;;;5.00;;
74541;SDS011;63015;45.378;20.360;2023-07-13T10:50:37;15.02;;;5.40;;
74541;SDS011;63015;45.378;20.360;2023-07-13T10:52:47;10.30;;;5.38;;
74541;SDS011;63015;45.378;20.360;2023-07-13T10:54:54;12.25;;;4.97;;
74541;SDS011;63015;45.378;20.360;2023-07-13T10:57:10;18.55;;;5.43;;
74541;SDS011;63015;45.378;20.360;2023-07-13T11:01:19;14.57;;;5.30;;
74541;SDS011;63015;45.378;20.360;2023-07-13T11:03:20;15.57;;;5.70;;
74541;SDS011;63015;45.378;20.360;2023-07-13T11:07:31;13.23;;;5.82;;
74541;SDS011;63015;45.378;20.360;2023-07-13T11:09:53;15.07;;;5.25;;
74541;SDS011;63015;45.378;20.360;2023-07-13T11:12:00;11.57;;;5.00;;
74541;SDS011;63015;45.378;20.360;2023-07-13T11:14:03;12.20;;;5.13;;
74541;SDS011;63015;45.378;20.360;2023-07-13T11:16:12;12.98;;;4.90;;
74541;SDS011;63015;45.378;20.360;2023-07-13T11:18:32;12.63;;;5.47;;
74541;SDS011;63015;45.378;20.360;2023-07-13T11:20:34;11.07;;;5.15;;
74541;SDS011;63015;45.378;20.360;2023-07-13T11:22:47;11.55;;;4.90;;
74541;SDS011;63015;45.378;20.360;2023-07-13T11:27:01;10.57;;;5.00;;
74541;SDS011;63015;45.378;20.360;2023-07-13T11:31:31;11.63;;;4.85;;
74541;SDS011;63015;45.378;20.360;2023-07-13T11:35:51;9.02;;;5.18;;
74541;SDS011;63015;45.378;20.360;2023-07-13T11:37:53;14.48;;;5.68;;
74541;SDS011;63015;45.378;20.360;2023-07-13T11:39:54;10.38;;;4.55;;
74541;SDS011;63015;45.378;20.360;2023-07-13T11:41:59;12.10;;;4.88;;
74541;SDS011;63015;45.378;20.360;2023-07-13T11:44:13;11.57;;;5.07;;
74541;SDS011;63015;45.378;20.360;2023-07-13T11:46:21;19.23;;;5.22;;
74541;SDS011;63015;45.378;20.360;2023-07-13T11:48:26;17.98;;;5.80;;
74541;SDS011;63015;45.378;20.360;2023-07-13T11:50:29;12.80;;;4.97;;
74541;SDS011;63015;45.378;20.360;2023-07-13T11:52:35;12.23;;;5.88;;
74541;SDS011;63015;45.378;20.360;2023-07-13T11:54:46;12.80;;;4.80;;
74541;SDS011;63015;45.378;20.360;2023-07-13T11:56:55;14.55;;;5.35;;
74541;SDS011;63015;45.378;20.360;2023-07-13T11:59:05;11.75;;;5.18;;
74541;SDS011;63015;45.378;20.360;2023-07-13T12:01:21;10.18;;;4.88;;
74541;SDS011;63015;45.378;20.360;2023-07-13T12:03:25;12.65;;;5.15;;
74541;SDS011;63015;45.378;20.360;2023-07-13T12:05:26;12.43;;;5.00;;
74541;SDS011;63015;45.378;20.360;2023-07-13T12:07:28;12.02;;;5.28;;
74541;SDS011;63015;45.378;20.360;2023-07-13T12:09:31;9.25;;;4.45;;
74541;SDS011;63015;45.378;20.360;2023-07-13T12:11:35;13.30;;;4.28;;
74541;SDS011;63015;45.378;20.360;2023-07-13T12:13:38;12.43;;;4.82;;
74541;SDS011;63015;45.378;20.360;2023-07-13T12:15:45;13.48;;;4.97;;
74541;SDS011;63015;45.378;20.360;2023-07-13T12:17:47;9.73;;;3.67;;
74541;SDS011;63015;45.378;20.360;2023-07-13T12:19:49;14.15;;;5.38;;
74541;SDS011;63015;45.378;20.360;2023-07-13T12:21:56;12.55;;;4.70;;
74541;SDS011;63015;45.378;20.360;2023-07-13T12:23:57;12.60;;;4.75;;
74541;SDS011;63015;45.378;20.360;2023-07-13T12:26:00;17.35;;;5.72;;
74541;SDS011;63015;45.378;20.360;2023-07-13T12:28:19;12.02;;;4.25;;
74541;SDS011;63015;45.378;20.360;2023-07-13T12:32:35;12.25;;;4.80;;